Terminal Aerodrome Forecast
Issued by NWS Upton, NY

Home | Current Version | Previous Version | Text Only | Print | Product List | Glossary On
Versions: 1 2 3 4 5 6 7 8 9 10 11 12 13 14 15 16 17 18 19 20 21 22 23 24 25 26 27 28 29 30 31 32 33 34 35 36 37 38 39 40
519
FTUS41 KOKX 202159 AAC
TAFEWR
TAF AMD
KEWR 202159Z 2022/2124 14006KT 4SM -RA BR FEW012 BKN022
     FM210000 14005KT 1 1/2SM -RA OVC010
     FM210300 19003KT 2SM -DZ BR OVC008
     FM210500 VRB03KT 2SM -DZ BR OVC006
     FM211400 25006KT 5SM BR SCT006 BKN012
     FM211800 25008KT P6SM BKN040=

USA.gov is the U.S. government's official web portal to all federal, state and local government web resources and services.